sensor_id;sensor_type;location;lat;lon;timestamp;P1;durP1;ratioP1;P2;durP2;ratioP2
3745;SDS011;1888;49.890;10.884;2022-07-12T04:40:49;5.40;;;5.40;;
3745;SDS011;1888;49.890;10.884;2022-07-12T04:43:17;6.67;;;6.57;;
3745;SDS011;1888;49.890;10.884;2022-07-12T04:45:46;6.60;;;6.50;;
3745;SDS011;1888;49.890;10.884;2022-07-12T05:10:07;8.93;;;8.83;;
3745;SDS011;1888;49.890;10.884;2022-07-12T05:12:44;8.90;;;8.80;;
3745;SDS011;1888;49.890;10.884;2022-07-12T05:15:13;8.60;;;8.50;;
3745;SDS011;1888;49.890;10.884;2022-07-12T05:17:41;8.97;;;8.87;;
3745;SDS011;1888;49.890;10.884;2022-07-12T05:20:09;9.47;;;9.37;;
3745;SDS011;1888;49.890;10.884;2022-07-12T05:22:39;9.63;;;9.53;;
3745;SDS011;1888;49.890;10.884;2022-07-12T05:25:11;9.87;;;9.77;;
3745;SDS011;1888;49.890;10.884;2022-07-12T05:27:54;9.70;;;9.60;;
3745;SDS011;1888;49.890;10.884;2022-07-12T05:30:21;9.40;;;9.30;;
3745;SDS011;1888;49.890;10.884;2022-07-12T05:33:02;10.50;;;10.30;;
3745;SDS011;1888;49.890;10.884;2022-07-12T05:35:29;10.20;;;10.10;;
3745;SDS011;1888;49.890;10.884;2022-07-12T05:37:57;10.93;;;10.73;;
3745;SDS011;1888;49.890;10.884;2022-07-12T05:40:25;11.83;;;11.63;;
3745;SDS011;1888;49.890;10.884;2022-07-12T05:42:53;12.07;;;11.87;;
3745;SDS011;1888;49.890;10.884;2022-07-12T05:45:20;12.33;;;12.07;;
3745;SDS011;1888;49.890;10.884;2022-07-12T05:47:53;12.57;;;12.27;;
3745;SDS011;1888;49.890;10.884;2022-07-12T05:50:21;13.10;;;12.80;;
3745;SDS011;1888;49.890;10.884;2022-07-12T05:52:48;13.10;;;12.80;;
3745;SDS011;1888;49.890;10.884;2022-07-12T05:55:35;12.90;;;12.60;;
3745;SDS011;1888;49.890;10.884;2022-07-12T05:58:02;13.23;;;12.93;;
3745;SDS011;1888;49.890;10.884;2022-07-12T06:00:31;13.20;;;12.90;;
3745;SDS011;1888;49.890;10.884;2022-07-12T06:03:00;13.13;;;12.83;;
3745;SDS011;1888;49.890;10.884;2022-07-12T06:05:27;13.60;;;13.30;;
3745;SDS011;1888;49.890;10.884;2022-07-12T06:07:54;13.40;;;13.10;;
3745;SDS011;1888;49.890;10.884;2022-07-12T06:10:22;13.30;;;13.00;;
3745;SDS011;1888;49.890;10.884;2022-07-12T06:12:50;13.37;;;13.07;;
3745;SDS011;1888;49.890;10.884;2022-07-12T06:15:18;13.20;;;12.90;;
3745;SDS011;1888;49.890;10.884;2022-07-12T06:17:45;13.03;;;12.73;;
3745;SDS011;1888;49.890;10.884;2022-07-12T06:20:13;13.20;;;12.90;;
3745;SDS011;1888;49.890;10.884;2022-07-12T06:22:40;13.13;;;12.83;;
3745;SDS011;1888;49.890;10.884;2022-07-12T06:25:07;13.10;;;12.80;;
3745;SDS011;1888;49.890;10.884;2022-07-12T06:27:34;13.67;;;13.37;;
3745;SDS011;1888;49.890;10.884;2022-07-12T06:30:03;13.20;;;12.90;;
3745;SDS011;1888;49.890;10.884;2022-07-12T06:32:31;13.33;;;13.03;;
3745;SDS011;1888;49.890;10.884;2022-07-12T06:34:58;13.07;;;12.77;;
3745;SDS011;1888;49.890;10.884;2022-07-12T06:37:25;12.93;;;12.63;;
3745;SDS011;1888;49.890;10.884;2022-07-12T06:39:55;13.20;;;12.90;;
3745;SDS011;1888;49.890;10.884;2022-07-12T06:42:23;12.97;;;12.67;;
3745;SDS011;1888;49.890;10.884;2022-07-12T06:44:50;13.00;;;12.70;;
3745;SDS011;1888;49.890;10.884;2022-07-12T06:47:19;13.07;;;12.77;;
3745;SDS011;1888;49.890;10.884;2022-07-12T06:49:46;12.60;;;12.30;;
3745;SDS011;1888;49.890;10.884;2022-07-12T06:52:13;12.90;;;12.60;;
3745;SDS011;1888;49.890;10.884;2022-07-12T06:54:40;13.23;;;12.93;;
3745;SDS011;1888;49.890;10.884;2022-07-12T06:57:07;13.20;;;12.90;;
3745;SDS011;1888;49.890;10.884;2022-07-12T06:59:35;13.10;;;12.80;;
3745;SDS011;1888;49.890;10.884;2022-07-12T07:02:02;13.10;;;12.80;;
3745;SDS011;1888;49.890;10.884;2022-07-12T07:04:30;12.73;;;12.43;;
3745;SDS011;1888;49.890;10.884;2022-07-12T07:06:57;12.93;;;12.63;;
3745;SDS011;1888;49.890;10.884;2022-07-12T07:09:25;13.03;;;12.73;;
3745;SDS011;1888;49.890;10.884;2022-07-12T07:11:52;13.40;;;13.10;;
3745;SDS011;1888;49.890;10.884;2022-07-12T07:14:19;13.60;;;13.30;;
3745;SDS011;1888;49.890;10.884;2022-07-12T07:16:46;13.30;;;13.00;;
3745;SDS011;1888;49.890;10.884;2022-07-12T07:19:13;12.73;;;12.43;;
3745;SDS011;1888;49.890;10.884;2022-07-12T07:21:42;13.00;;;12.70;;
3745;SDS011;1888;49.890;10.884;2022-07-12T07:24:09;12.63;;;12.33;;
3745;SDS011;1888;49.890;10.884;2022-07-12T07:26:36;13.00;;;12.70;;
3745;SDS011;1888;49.890;10.884;2022-07-12T07:29:03;12.53;;;12.23;;
3745;SDS011;1888;49.890;10.884;2022-07-12T07:31:47;12.50;;;12.20;;
3745;SDS011;1888;49.890;10.884;2022-07-12T07:34:15;12.90;;;12.60;;
3745;SDS011;1888;49.890;10.884;2022-07-12T07:36:43;12.37;;;12.17;;
3745;SDS011;1888;49.890;10.884;2022-07-12T07:39:11;11.90;;;11.70;;
3745;SDS011;1888;49.890;10.884;2022-07-12T07:41:38;12.07;;;11.87;;
3745;SDS011;1888;49.890;10.884;2022-07-12T07:44:05;12.87;;;12.57;;
3745;SDS011;1888;49.890;10.884;2022-07-12T07:46:32;12.90;;;12.60;;
3745;SDS011;1888;49.890;10.884;2022-07-12T07:48:59;13.40;;;13.10;;
3745;SDS011;1888;49.890;10.884;2022-07-12T07:51:26;13.10;;;12.80;;
3745;SDS011;1888;49.890;10.884;2022-07-12T07:53:55;12.70;;;12.40;;
3745;SDS011;1888;49.890;10.884;2022-07-12T07:56:22;13.23;;;12.93;;
3745;SDS011;1888;49.890;10.884;2022-07-12T07:58:49;13.10;;;12.80;;
3745;SDS011;1888;49.890;10.884;2022-07-12T08:01:17;12.60;;;12.30;;
3745;SDS011;1888;49.890;10.884;2022-07-12T08:03:44;13.03;;;12.73;;
3745;SDS011;1888;49.890;10.884;2022-07-12T08:06:11;12.33;;;12.13;;
3745;SDS011;1888;49.890;10.884;2022-07-12T08:08:38;12.80;;;12.50;;
3745;SDS011;1888;49.890;10.884;2022-07-12T08:11:07;12.17;;;11.97;;
3745;SDS011;1888;49.890;10.884;2022-07-12T08:13:34;12.60;;;12.30;;
3745;SDS011;1888;49.890;10.884;2022-07-12T08:16:01;12.33;;;12.13;;
3745;SDS011;1888;49.890;10.884;2022-07-12T08:18:28;12.60;;;12.30;;
3745;SDS011;1888;49.890;10.884;2022-07-12T08:20:55;12.23;;;12.03;;
3745;SDS011;1888;49.890;10.884;2022-07-12T08:23:22;13.30;;;13.00;;
3745;SDS011;1888;49.890;10.884;2022-07-12T08:25:50;12.30;;;12.10;;
3745;SDS011;1888;49.890;10.884;2022-07-12T08:28:18;12.50;;;12.20;;
3745;SDS011;1888;49.890;10.884;2022-07-12T08:30:45;12.30;;;12.10;;
3745;SDS011;1888;49.890;10.884;2022-07-12T08:33:13;12.50;;;12.20;;
3745;SDS011;1888;49.890;10.884;2022-07-12T08:35:41;12.30;;;12.10;;
3745;SDS011;1888;49.890;10.884;2022-07-12T08:38:08;12.67;;;12.37;;
3745;SDS011;1888;49.890;10.884;2022-07-12T08:40:35;13.00;;;12.70;;
3745;SDS011;1888;49.890;10.884;2022-07-12T08:43:02;12.60;;;12.30;;
3745;SDS011;1888;49.890;10.884;2022-07-12T08:45:31;12.60;;;12.30;;
3745;SDS011;1888;49.890;10.884;2022-07-12T08:47:58;12.87;;;12.57;;
3745;SDS011;1888;49.890;10.884;2022-07-12T08:50:25;12.33;;;12.13;;
3745;SDS011;1888;49.890;10.884;2022-07-12T08:52:53;12.50;;;12.20;;
3745;SDS011;1888;49.890;10.884;2022-07-12T08:55:21;12.20;;;12.00;;
3745;SDS011;1888;49.890;10.884;2022-07-12T08:57:49;12.10;;;11.90;;
3745;SDS011;1888;49.890;10.884;2022-07-12T09:00:17;11.80;;;11.60;;
3745;SDS011;1888;49.890;10.884;2022-07-12T09:02:47;12.40;;;12.20;;
3745;SDS011;1888;49.890;10.884;2022-07-12T09:05:15;12.57;;;12.30;;
3745;SDS011;1888;49.890;10.884;2022-07-12T09:07:42;11.80;;;11.60;;
3745;SDS011;1888;49.890;10.884;2022-07-12T09:10:10;12.10;;;11.90;;
3745;SDS011;1888;49.890;10.884;2022-07-12T09:12:39;12.40;;;12.20;;
3745;SDS011;1888;49.890;10.884;2022-07-12T09:15:10;12.13;;;11.93;;
3745;SDS011;1888;49.890;10.884;2022-07-12T09:17:37;11.73;;;11.53;;
3745;SDS011;1888;49.890;10.884;2022-07-12T09:20:06;11.80;;;11.60;;
3745;SDS011;1888;49.890;10.884;2022-07-12T09:22:35;12.10;;;11.90;;
3745;SDS011;1888;49.890;10.884;2022-07-12T09:25:08;11.63;;;11.43;;
3745;SDS011;1888;49.890;10.884;2022-07-12T09:27:35;11.77;;;11.57;;
3745;SDS011;1888;49.890;10.884;2022-07-12T09:30:04;12.03;;;11.83;;
3745;SDS011;1888;49.890;10.884;2022-07-12T09:32:40;11.90;;;11.70;;
3745;SDS011;1888;49.890;10.884;2022-07-12T09:35:34;11.90;;;11.70;;
3745;SDS011;1888;49.890;10.884;2022-07-12T09:38:19;11.90;;;11.70;;
3745;SDS011;1888;49.890;10.884;2022-07-12T09:40:46;12.17;;;11.97;;
3745;SDS011;1888;49.890;10.884;2022-07-12T09:43:14;11.50;;;11.30;;
3745;SDS011;1888;49.890;10.884;2022-07-12T09:45:44;12.10;;;11.90;;
3745;SDS011;1888;49.890;10.884;2022-07-12T09:48:12;12.00;;;11.80;;
3745;SDS011;1888;49.890;10.884;2022-07-12T09:50:41;12.00;;;11.80;;
3745;SDS011;1888;49.890;10.884;2022-07-12T09:53:13;11.97;;;11.77;;
3745;SDS011;1888;49.890;10.884;2022-07-12T09:55:43;12.10;;;11.90;;
3745;SDS011;1888;49.890;10.884;2022-07-12T09:58:11;12.07;;;11.87;;
3745;SDS011;1888;49.890;10.884;2022-07-12T10:00:39;11.90;;;11.70;;
3745;SDS011;1888;49.890;10.884;2022-07-12T10:03:06;12.30;;;12.10;;
3745;SDS011;1888;49.890;10.884;2022-07-12T10:05:34;12.10;;;11.90;;
3745;SDS011;1888;49.890;10.884;2022-07-12T10:08:03;12.60;;;12.30;;
3745;SDS011;1888;49.890;10.884;2022-07-12T10:10:30;12.10;;;11.90;;
3745;SDS011;1888;49.890;10.884;2022-07-12T10:12:58;12.02;;;11.82;;
3745;SDS011;1888;49.890;10.884;2022-07-12T10:15:26;12.63;;;12.32;;
3745;SDS011;1888;49.890;10.884;2022-07-12T10:17:55;12.80;;;12.50;;
3745;SDS011;1888;49.890;10.884;2022-07-12T10:20:24;12.25;;;12.05;;
3745;SDS011;1888;49.890;10.884;2022-07-12T10:22:53;12.05;;;11.85;;
3745;SDS011;1888;49.890;10.884;2022-07-12T10:25:34;12.45;;;12.25;;
3745;SDS011;1888;49.890;10.884;2022-07-12T10:28:02;12.30;;;12.10;;
3745;SDS011;1888;49.890;10.884;2022-07-12T10:30:29;12.07;;;11.87;;
3745;SDS011;1888;49.890;10.884;2022-07-12T10:32:57;11.57;;;11.37;;
3745;SDS011;1888;49.890;10.884;2022-07-12T10:35:25;11.97;;;11.77;;
3745;SDS011;1888;49.890;10.884;2022-07-12T10:40:40;12.00;;;11.80;;
3745;SDS011;1888;49.890;10.884;2022-07-12T10:43:12;11.73;;;11.53;;
3745;SDS011;1888;49.890;10.884;2022-07-12T10:45:43;12.43;;;12.20;;
3745;SDS011;1888;49.890;10.884;2022-07-12T10:48:18;11.63;;;11.43;;
3745;SDS011;1888;49.890;10.884;2022-07-12T10:50:52;11.80;;;11.60;;
3745;SDS011;1888;49.890;10.884;2022-07-12T10:53:28;12.30;;;12.10;;
3745;SDS011;1888;49.890;10.884;2022-07-12T10:56:13;12.10;;;11.90;;
3745;SDS011;1888;49.890;10.884;2022-07-12T10:58:41;12.17;;;11.97;;
3745;SDS011;1888;49.890;10.884;2022-07-12T11:01:09;12.40;;;12.20;;
3745;SDS011;1888;49.890;10.884;2022-07-12T11:03:37;12.02;;;11.82;;
3745;SDS011;1888;49.890;10.884;2022-07-12T11:06:07;11.82;;;11.63;;
3745;SDS011;1888;49.890;10.884;2022-07-12T11:08:51;12.07;;;11.88;;
3745;SDS011;1888;49.890;10.884;2022-07-12T11:11:20;11.85;;;11.65;;
3745;SDS011;1888;49.890;10.884;2022-07-12T11:13:48;11.80;;;11.60;;
3745;SDS011;1888;49.890;10.884;2022-07-12T11:16:16;12.43;;;12.18;;
3745;SDS011;1888;49.890;10.884;2022-07-12T11:18:43;11.75;;;11.55;;
3745;SDS011;1888;49.890;10.884;2022-07-12T11:21:11;11.60;;;11.40;;
3745;SDS011;1888;49.890;10.884;2022-07-12T11:23:38;11.80;;;11.60;;
3745;SDS011;1888;49.890;10.884;2022-07-12T11:26:07;11.73;;;11.52;;
3745;SDS011;1888;49.890;10.884;2022-07-12T11:28:36;11.88;;;11.68;;
3745;SDS011;1888;49.890;10.884;2022-07-12T11:31:04;11.50;;;11.30;;
3745;SDS011;1888;49.890;10.884;2022-07-12T11:33:31;12.02;;;11.82;;
3745;SDS011;1888;49.890;10.884;2022-07-12T11:35:59;11.68;;;11.48;;
3745;SDS011;1888;49.890;10.884;2022-07-12T11:38:27;11.63;;;11.43;;
3745;SDS011;1888;49.890;10.884;2022-07-12T11:40:54;11.60;;;11.40;;
3745;SDS011;1888;49.890;10.884;2022-07-12T11:43:22;12.18;;;11.98;;
3745;SDS011;1888;49.890;10.884;2022-07-12T11:45:52;11.93;;;11.73;;
3745;SDS011;1888;49.890;10.884;2022-07-12T11:48:19;11.63;;;11.43;;
3745;SDS011;1888;49.890;10.884;2022-07-12T11:50:47;11.77;;;11.57;;
3745;SDS011;1888;49.890;10.884;2022-07-12T11:53:15;12.10;;;11.90;;
3745;SDS011;1888;49.890;10.884;2022-07-12T11:55:43;12.10;;;11.90;;
3745;SDS011;1888;49.890;10.884;2022-07-12T11:58:10;11.95;;;11.75;;
3745;SDS011;1888;49.890;10.884;2022-07-12T12:00:38;11.88;;;11.68;;
3745;SDS011;1888;49.890;10.884;2022-07-12T12:03:06;12.10;;;11.90;;
3745;SDS011;1888;49.890;10.884;2022-07-12T12:05:33;11.55;;;11.35;;
3745;SDS011;1888;49.890;10.884;2022-07-12T12:08:02;11.48;;;11.27;;
3745;SDS011;1888;49.890;10.884;2022-07-12T12:10:29;11.30;;;11.10;;
3745;SDS011;1888;49.890;10.884;2022-07-12T12:12:58;11.55;;;11.35;;
3745;SDS011;1888;49.890;10.884;2022-07-12T12:15:25;11.60;;;11.40;;
3745;SDS011;1888;49.890;10.884;2022-07-12T12:17:53;11.90;;;11.70;;
3745;SDS011;1888;49.890;10.884;2022-07-12T12:20:23;11.30;;;11.10;;
3745;SDS011;1888;49.890;10.884;2022-07-12T12:22:50;11.85;;;11.65;;
3745;SDS011;1888;49.890;10.884;2022-07-12T12:25:18;11.45;;;11.25;;
3745;SDS011;1888;49.890;10.884;2022-07-12T12:27:46;11.68;;;11.48;;
3745;SDS011;1888;49.890;10.884;2022-07-12T12:30:14;12.00;;;11.80;;
3745;SDS011;1888;49.890;10.884;2022-07-12T12:32:44;12.20;;;12.00;;
3745;SDS011;1888;49.890;10.884;2022-07-12T12:35:12;11.37;;;11.17;;
3745;SDS011;1888;49.890;10.884;2022-07-12T12:37:47;11.77;;;11.57;;
3745;SDS011;1888;49.890;10.884;2022-07-12T12:40:17;11.83;;;11.63;;
3745;SDS011;1888;49.890;10.884;2022-07-12T12:42:45;12.20;;;12.00;;
3745;SDS011;1888;49.890;10.884;2022-07-12T12:45:16;11.23;;;11.03;;
3745;SDS011;1888;49.890;10.884;2022-07-12T12:47:54;11.90;;;11.70;;
3745;SDS011;1888;49.890;10.884;2022-07-12T12:50:41;12.10;;;11.90;;
3745;SDS011;1888;49.890;10.884;2022-07-12T12:53:20;12.07;;;11.87;;
3745;SDS011;1888;49.890;10.884;2022-07-12T12:55:47;12.20;;;12.00;;
3745;SDS011;1888;49.890;10.884;2022-07-12T12:58:17;11.70;;;11.50;;
3745;SDS011;1888;49.890;10.884;2022-07-12T13:00:45;12.60;;;12.30;;
3745;SDS011;1888;49.890;10.884;2022-07-12T13:03:13;11.83;;;11.63;;
3745;SDS011;1888;49.890;10.884;2022-07-12T13:05:40;11.93;;;11.73;;
3745;SDS011;1888;49.890;10.884;2022-07-12T13:08:10;11.87;;;11.67;;
3745;SDS011;1888;49.890;10.884;2022-07-12T13:10:39;11.97;;;11.77;;
3745;SDS011;1888;49.890;10.884;2022-07-12T13:13:06;11.80;;;11.60;;
3745;SDS011;1888;49.890;10.884;2022-07-12T13:15:34;11.93;;;11.73;;
3745;SDS011;1888;49.890;10.884;2022-07-12T13:18:01;11.93;;;11.73;;
3745;SDS011;1888;49.890;10.884;2022-07-12T13:20:29;12.03;;;11.83;;
3745;SDS011;1888;49.890;10.884;2022-07-12T13:22:57;11.83;;;11.63;;
3745;SDS011;1888;49.890;10.884;2022-07-12T13:25:24;11.80;;;11.60;;
3745;SDS011;1888;49.890;10.884;2022-07-12T13:27:53;11.70;;;11.50;;
3745;SDS011;1888;49.890;10.884;2022-07-12T13:30:20;12.00;;;11.80;;
3745;SDS011;1888;49.890;10.884;2022-07-12T13:32:47;12.20;;;12.00;;
3745;SDS011;1888;49.890;10.884;2022-07-12T13:35:14;12.07;;;11.87;;
3745;SDS011;1888;49.890;10.884;2022-07-12T13:37:42;12.30;;;12.10;;
3745;SDS011;1888;49.890;10.884;2022-07-12T13:40:09;12.23;;;12.03;;
3745;SDS011;1888;49.890;10.884;2022-07-12T13:42:36;12.03;;;11.83;;
3745;SDS011;1888;49.890;10.884;2022-07-12T13:45:06;11.80;;;11.60;;
3745;SDS011;1888;49.890;10.884;2022-07-12T13:47:34;12.90;;;12.60;;
3745;SDS011;1888;49.890;10.884;2022-07-12T13:50:01;12.20;;;12.00;;
3745;SDS011;1888;49.890;10.884;2022-07-12T13:52:29;12.07;;;11.87;;
3745;SDS011;1888;49.890;10.884;2022-07-12T13:54:56;12.60;;;12.30;;
3745;SDS011;1888;49.890;10.884;2022-07-12T13:57:24;11.87;;;11.67;;
3745;SDS011;1888;49.890;10.884;2022-07-12T13:59:52;12.23;;;12.03;;
3745;SDS011;1888;49.890;10.884;2022-07-12T14:02:20;11.73;;;11.53;;
3745;SDS011;1888;49.890;10.884;2022-07-12T14:04:48;11.97;;;11.77;;
3745;SDS011;1888;49.890;10.884;2022-07-12T14:07:15;12.33;;;12.13;;
3745;SDS011;1888;49.890;10.884;2022-07-12T14:09:42;11.97;;;11.77;;
3745;SDS011;1888;49.890;10.884;2022-07-12T14:12:09;11.83;;;11.63;;
3745;SDS011;1888;49.890;10.884;2022-07-12T14:14:36;12.23;;;12.03;;
3745;SDS011;1888;49.890;10.884;2022-07-12T14:17:22;11.70;;;11.50;;
3745;SDS011;1888;49.890;10.884;2022-07-12T14:19:49;11.80;;;11.60;;
3745;SDS011;1888;49.890;10.884;2022-07-12T14:22:16;11.40;;;11.20;;
3745;SDS011;1888;49.890;10.884;2022-07-12T14:24:46;11.80;;;11.60;;
3745;SDS011;1888;49.890;10.884;2022-07-12T14:27:13;11.53;;;11.33;;
3745;SDS011;1888;49.890;10.884;2022-07-12T14:29:40;11.50;;;11.30;;
3745;SDS011;1888;49.890;10.884;2022-07-12T14:32:07;11.20;;;11.00;;
3745;SDS011;1888;49.890;10.884;2022-07-12T14:34:36;11.40;;;11.20;;
3745;SDS011;1888;49.890;10.884;2022-07-12T14:37:03;12.03;;;11.83;;
3745;SDS011;1888;49.890;10.884;2022-07-12T14:39:30;11.30;;;11.10;;
3745;SDS011;1888;49.890;10.884;2022-07-12T14:41:57;11.60;;;11.40;;
3745;SDS011;1888;49.890;10.884;2022-07-12T14:44:24;11.33;;;11.13;;
3745;SDS011;1888;49.890;10.884;2022-07-12T14:46:51;11.87;;;11.67;;
3745;SDS011;1888;49.890;10.884;2022-07-12T14:49:19;11.40;;;11.20;;
3745;SDS011;1888;49.890;10.884;2022-07-12T14:51:47;11.77;;;11.57;;
3745;SDS011;1888;49.890;10.884;2022-07-12T14:54:14;11.60;;;11.40;;
3745;SDS011;1888;49.890;10.884;2022-07-12T14:56:41;11.47;;;11.27;;
3745;SDS011;1888;49.890;10.884;2022-07-12T14:59:09;11.40;;;11.20;;
3745;SDS011;1888;49.890;10.884;2022-07-12T15:01:36;11.83;;;11.63;;
3745;SDS011;1888;49.890;10.884;2022-07-12T15:04:03;11.60;;;11.40;;
3745;SDS011;1888;49.890;10.884;2022-07-12T15:06:30;12.03;;;11.83;;
3745;SDS011;1888;49.890;10.884;2022-07-12T15:08:59;11.87;;;11.67;;
3745;SDS011;1888;49.890;10.884;2022-07-12T15:11:26;11.73;;;11.53;;
3745;SDS011;1888;49.890;10.884;2022-07-12T15:13:53;11.70;;;11.50;;
3745;SDS011;1888;49.890;10.884;2022-07-12T15:16:21;12.10;;;11.90;;
3745;SDS011;1888;49.890;10.884;2022-07-12T15:18:48;11.70;;;11.50;;
3745;SDS011;1888;49.890;10.884;2022-07-12T15:21:15;11.63;;;11.43;;
3745;SDS011;1888;49.890;10.884;2022-07-12T15:23:42;11.90;;;11.70;;
3745;SDS011;1888;49.890;10.884;2022-07-12T15:26:11;11.90;;;11.70;;
3745;SDS011;1888;49.890;10.884;2022-07-12T15:28:48;11.73;;;11.53;;
3745;SDS011;1888;49.890;10.884;2022-07-12T15:31:15;11.97;;;11.77;;
3745;SDS011;1888;49.890;10.884;2022-07-12T15:33:43;11.97;;;11.77;;
3745;SDS011;1888;49.890;10.884;2022-07-12T15:36:10;11.97;;;11.77;;
3745;SDS011;1888;49.890;10.884;2022-07-12T15:38:37;12.00;;;11.80;;
3745;SDS011;1888;49.890;10.884;2022-07-12T15:41:04;11.77;;;11.57;;
3745;SDS011;1888;49.890;10.884;2022-07-12T15:43:33;11.87;;;11.67;;
3745;SDS011;1888;49.890;10.884;2022-07-12T15:46:01;12.07;;;11.87;;
3745;SDS011;1888;49.890;10.884;2022-07-12T15:48:28;11.70;;;11.50;;
3745;SDS011;1888;49.890;10.884;2022-07-12T15:50:55;12.13;;;11.93;;
3745;SDS011;1888;49.890;10.884;2022-07-12T15:53:23;11.70;;;11.50;;
3745;SDS011;1888;49.890;10.884;2022-07-12T15:55:53;12.27;;;12.07;;
3745;SDS011;1888;49.890;10.884;2022-07-12T15:58:22;11.83;;;11.63;;
3745;SDS011;1888;49.890;10.884;2022-07-12T16:00:51;12.20;;;12.00;;
3745;SDS011;1888;49.890;10.884;2022-07-12T16:03:18;12.37;;;12.10;;
3745;SDS011;1888;49.890;10.884;2022-07-12T16:05:45;12.03;;;11.83;;
3745;SDS011;1888;49.890;10.884;2022-07-12T16:08:12;12.13;;;11.93;;
3745;SDS011;1888;49.890;10.884;2022-07-12T16:10:40;12.00;;;11.80;;
3745;SDS011;1888;49.890;10.884;2022-07-12T16:13:07;12.50;;;12.20;;
3745;SDS011;1888;49.890;10.884;2022-07-12T16:15:34;12.17;;;11.97;;
3745;SDS011;1888;49.890;10.884;2022-07-12T16:18:03;11.90;;;11.70;;
3745;SDS011;1888;49.890;10.884;2022-07-12T16:20:31;11.87;;;11.67;;
3745;SDS011;1888;49.890;10.884;2022-07-12T16:22:58;12.37;;;12.13;;
3745;SDS011;1888;49.890;10.884;2022-07-12T16:25:27;11.93;;;11.73;;
3745;SDS011;1888;49.890;10.884;2022-07-12T16:27:54;11.97;;;11.77;;
3745;SDS011;1888;49.890;10.884;2022-07-12T16:30:21;12.50;;;12.20;;
3745;SDS011;1888;49.890;10.884;2022-07-12T16:32:49;12.00;;;11.80;;
3745;SDS011;1888;49.890;10.884;2022-07-12T16:35:20;11.43;;;11.23;;
3745;SDS011;1888;49.890;10.884;2022-07-12T16:37:49;11.93;;;11.73;;
3745;SDS011;1888;49.890;10.884;2022-07-12T16:40:17;12.07;;;11.87;;
3745;SDS011;1888;49.890;10.884;2022-07-12T16:42:44;12.07;;;11.87;;
3745;SDS011;1888;49.890;10.884;2022-07-12T16:45:11;12.20;;;12.00;;
3745;SDS011;1888;49.890;10.884;2022-07-12T16:47:38;12.20;;;12.00;;
3745;SDS011;1888;49.890;10.884;2022-07-12T16:50:06;12.30;;;12.10;;
3745;SDS011;1888;49.890;10.884;2022-07-12T16:52:34;12.07;;;11.87;;
3745;SDS011;1888;49.890;10.884;2022-07-12T16:55:02;11.50;;;11.30;;
3745;SDS011;1888;49.890;10.884;2022-07-12T16:57:29;11.60;;;11.40;;
3745;SDS011;1888;49.890;10.884;2022-07-12T16:59:56;12.00;;;11.80;;
3745;SDS011;1888;49.890;10.884;2022-07-12T17:02:23;11.77;;;11.57;;
3745;SDS011;1888;49.890;10.884;2022-07-12T17:04:50;11.40;;;11.20;;
3745;SDS011;1888;49.890;10.884;2022-07-12T17:07:19;11.73;;;11.53;;
3745;SDS011;1888;49.890;10.884;2022-07-12T17:09:47;11.97;;;11.77;;
3745;SDS011;1888;49.890;10.884;2022-07-12T17:12:14;11.80;;;11.60;;
3745;SDS011;1888;49.890;10.884;2022-07-12T17:14:41;11.47;;;11.27;;
3745;SDS011;1888;49.890;10.884;2022-07-12T17:17:09;11.70;;;11.50;;
3745;SDS011;1888;49.890;10.884;2022-07-12T17:19:38;11.90;;;11.70;;
3745;SDS011;1888;49.890;10.884;2022-07-12T17:22:05;11.60;;;11.40;;
3745;SDS011;1888;49.890;10.884;2022-07-12T17:24:33;11.50;;;11.30;;
3745;SDS011;1888;49.890;10.884;2022-07-12T17:27:01;11.50;;;11.30;;
3745;SDS011;1888;49.890;10.884;2022-07-12T17:29:29;12.00;;;11.80;;
3745;SDS011;1888;49.890;10.884;2022-07-12T17:31:56;11.43;;;11.23;;
3745;SDS011;1888;49.890;10.884;2022-07-12T17:34:23;11.60;;;11.40;;
3745;SDS011;1888;49.890;10.884;2022-07-12T17:36:51;12.00;;;11.80;;
3745;SDS011;1888;49.890;10.884;2022-07-12T17:39:18;11.73;;;11.53;;
3745;SDS011;1888;49.890;10.884;2022-07-12T17:41:45;12.07;;;11.87;;
3745;SDS011;1888;49.890;10.884;2022-07-12T17:44:14;12.00;;;11.80;;
3745;SDS011;1888;49.890;10.884;2022-07-12T17:46:42;11.60;;;11.40;;
3745;SDS011;1888;49.890;10.884;2022-07-12T17:49:14;11.87;;;11.67;;
3745;SDS011;1888;49.890;10.884;2022-07-12T17:51:41;11.87;;;11.67;;
3745;SDS011;1888;49.890;10.884;2022-07-12T17:54:08;11.60;;;11.40;;
3745;SDS011;1888;49.890;10.884;2022-07-12T17:56:35;12.20;;;12.00;;
3745;SDS011;1888;49.890;10.884;2022-07-12T17:59:02;12.17;;;11.97;;
3745;SDS011;1888;49.890;10.884;2022-07-12T18:01:31;11.63;;;11.43;;
3745;SDS011;1888;49.890;10.884;2022-07-12T18:03:58;11.80;;;11.60;;
3745;SDS011;1888;49.890;10.884;2022-07-12T18:06:26;12.27;;;12.07;;
3745;SDS011;1888;49.890;10.884;2022-07-12T18:08:54;11.90;;;11.70;;
3745;SDS011;1888;49.890;10.884;2022-07-12T18:11:21;11.93;;;11.73;;
3745;SDS011;1888;49.890;10.884;2022-07-12T18:14:06;11.70;;;11.50;;
3745;SDS011;1888;49.890;10.884;2022-07-12T18:16:52;12.03;;;11.83;;
3745;SDS011;1888;49.890;10.884;2022-07-12T18:19:33;11.73;;;11.53;;
3745;SDS011;1888;49.890;10.884;2022-07-12T18:22:00;11.80;;;11.60;;
3745;SDS011;1888;49.890;10.884;2022-07-12T18:24:27;11.90;;;11.70;;
3745;SDS011;1888;49.890;10.884;2022-07-12T18:26:54;11.63;;;11.43;;
3745;SDS011;1888;49.890;10.884;2022-07-12T18:29:21;11.70;;;11.50;;
3745;SDS011;1888;49.890;10.884;2022-07-12T18:31:49;11.37;;;11.17;;
3745;SDS011;1888;49.890;10.884;2022-07-12T18:34:17;11.63;;;11.43;;
3745;SDS011;1888;49.890;10.884;2022-07-12T18:36:45;12.00;;;11.80;;
3745;SDS011;1888;49.890;10.884;2022-07-12T18:39:12;12.00;;;11.80;;
3745;SDS011;1888;49.890;10.884;2022-07-12T18:41:39;12.10;;;11.90;;
3745;SDS011;1888;49.890;10.884;2022-07-12T18:44:06;12.03;;;11.83;;
3745;SDS011;1888;49.890;10.884;2022-07-12T18:46:34;11.90;;;11.70;;
3745;SDS011;1888;49.890;10.884;2022-07-12T18:49:01;11.70;;;11.50;;
3745;SDS011;1888;49.890;10.884;2022-07-12T18:54:39;11.97;;;11.77;;
3745;SDS011;1888;49.890;10.884;2022-07-12T18:57:10;12.30;;;12.10;;
3745;SDS011;1888;49.890;10.884;2022-07-12T18:59:40;12.30;;;12.10;;
3745;SDS011;1888;49.890;10.884;2022-07-12T19:02:24;12.00;;;11.80;;
3745;SDS011;1888;49.890;10.884;2022-07-12T19:44:23;11.77;;;11.57;;
3745;SDS011;1888;49.890;10.884;2022-07-12T19:46:50;11.83;;;11.63;;
3745;SDS011;1888;49.890;10.884;2022-07-12T19:49:19;11.80;;;11.60;;
3745;SDS011;1888;49.890;10.884;2022-07-12T19:51:46;11.83;;;11.63;;
3745;SDS011;1888;49.890;10.884;2022-07-12T19:54:14;11.90;;;11.70;;
3745;SDS011;1888;49.890;10.884;2022-07-12T19:56:41;11.73;;;11.53;;
3745;SDS011;1888;49.890;10.884;2022-07-12T19:59:08;11.70;;;11.50;;
3745;SDS011;1888;49.890;10.884;2022-07-12T20:01:37;11.87;;;11.67;;
3745;SDS011;1888;49.890;10.884;2022-07-12T20:04:05;12.23;;;12.03;;
3745;SDS011;1888;49.890;10.884;2022-07-12T20:06:33;12.27;;;12.07;;
3745;SDS011;1888;49.890;10.884;2022-07-12T20:09:02;12.20;;;12.00;;
3745;SDS011;1888;49.890;10.884;2022-07-12T20:11:30;11.87;;;11.67;;
3745;SDS011;1888;49.890;10.884;2022-07-12T20:13:57;12.13;;;11.93;;
3745;SDS011;1888;49.890;10.884;2022-07-12T20:16:24;11.80;;;11.60;;
3745;SDS011;1888;49.890;10.884;2022-07-12T20:18:55;11.43;;;11.23;;
3745;SDS011;1888;49.890;10.884;2022-07-12T20:21:22;11.70;;;11.50;;
3745;SDS011;1888;49.890;10.884;2022-07-12T20:23:49;11.67;;;11.47;;
3745;SDS011;1888;49.890;10.884;2022-07-12T20:26:16;12.07;;;11.87;;
3745;SDS011;1888;49.890;10.884;2022-07-12T20:28:44;11.97;;;11.77;;
3745;SDS011;1888;49.890;10.884;2022-07-12T20:31:11;12.20;;;12.00;;